Time;durP1;ratioP1;P1;durP2;ratioP2;P2;SDS_P1;SDS_P2;PMS_P1;PMS_P2;Temp;Humidity;BMP_temperature;BMP_pressure;BME280_temperature;BME280_humidity;BME280_pressure;Samples;Min_cycle;Max_cycle;Signal;HPM_P1;HPM_P2
2023/01/26 00:00:49;;;;;;;28.45;11.57;;;2.30;99.90;;;;;;5049152;28;20392;-67
2023/01/26 00:03:15;;;;;;;26.38;10.52;;;2.20;99.90;;;;;;5048537;28;20385;-67
2023/01/26 00:05:40;;;;;;;31.50;12.03;;;2.00;99.90;;;;;;5049319;28;20463;-67
2023/01/26 00:08:07;;;;;;;29.10;11.70;;;2.00;99.90;;;;;;5048258;28;20800;-67
2023/01/26 00:10:36;;;;;;;31.38;12.02;;;2.20;99.90;;;;;;5049151;28;20457;-67
2023/01/26 00:13:02;;;;;;;31.33;12.03;;;2.20;99.90;;;;;;5048310;28;20401;-67
2023/01/26 00:15:28;;;;;;;31.63;11.75;;;2.20;99.90;;;;;;5049193;28;20464;-67
2023/01/26 00:17:53;;;;;;;27.53;10.23;;;2.40;1.00;;;;;;5052397;28;20481;-67
2023/01/26 00:20:19;;;;;;;29.17;10.95;;;2.30;1.00;;;;;;5051891;28;20377;-67
2023/01/26 00:22:45;;;;;;;24.92;9.20;;;2.40;1.00;;;;;;5052752;28;20385;-67
2023/01/26 00:25:10;;;;;;;28.00;11.53;;;2.40;99.90;;;;;;5051833;28;20466;-67
2023/01/26 00:27:36;;;;;;;25.23;10.45;;;2.30;99.90;;;;;;5051384;28;20481;-67
2023/01/26 00:30:02;;;;;;;28.87;10.93;;;2.20;1.00;;;;;;5051966;28;20385;-67
2023/01/26 00:32:28;;;;;;;31.90;12.73;;;2.40;99.90;;;;;;5052040;28;20723;-68
2023/01/26 00:34:53;;;;;;;28.53;9.93;;;2.40;1.00;;;;;;5052235;28;20382;-67
2023/01/26 00:37:19;;;;;;;27.52;10.30;;;2.30;1.00;;;;;;5052002;28;21353;-67
2023/01/26 00:39:44;;;;;;;25.73;10.00;;;2.10;99.90;;;;;;5052515;28;20431;-67
2023/01/26 00:42:12;;;;;;;28.43;10.30;;;2.10;99.90;;;;;;5051417;28;20413;-67
2023/01/26 00:44:39;;;;;;;24.45;9.30;;;2.20;99.90;;;;;;5052303;28;20475;-67
2023/01/26 00:47:06;;;;;;;24.85;9.77;;;2.20;99.90;;;;;;5051505;28;20374;-67
2023/01/26 00:49:32;;;;;;;26.90;10.07;;;2.20;99.90;;;;;;5052072;28;20369;-67
2023/01/26 00:51:58;;;;;;;27.95;10.93;;;2.20;99.90;;;;;;5051849;28;20376;-66
2023/01/26 00:54:23;;;;;;;30.43;10.07;;;2.20;1.00;;;;;;5051420;28;20878;-68
2023/01/26 00:56:49;;;;;;;31.50;10.80;;;2.30;1.00;;;;;;5051878;28;20396;-67
2023/01/26 00:59:14;;;;;;;28.38;10.82;;;2.20;1.00;;;;;;5051174;28;20447;-67
2023/01/26 01:01:40;;;;;;;31.00;10.90;;;2.20;99.90;;;;;;5052056;28;20722;-67
2023/01/26 01:04:05;;;;;;;26.70;9.77;;;2.40;99.90;;;;;;5051481;28;20385;-67
2023/01/26 01:06:31;;;;;;;22.50;9.90;;;3.10;1.00;;;;;;5051546;28;20382;-67
2023/01/26 01:08:57;;;;;;;32.88;11.32;;;2.40;1.00;;;;;;5051716;28;20385;-66
2023/01/26 01:11:22;;;;;;;29.00;11.10;;;2.40;13.90;;;;;;5051076;28;20386;-67
2023/01/26 01:13:48;;;;;;;28.02;10.75;;;2.40;1.00;;;;;;5051761;28;20898;-67
2023/01/26 01:16:15;;;;;;;28.10;10.13;;;2.30;1.00;;;;;;5050662;28;20381;-67
2023/01/26 01:18:41;;;;;;;27.08;10.90;;;2.30;1.00;;;;;;5051531;28;20378;-67
2023/01/26 01:21:14;;;;;;;34.10;12.18;;;2.20;1.00;;;;;;5050830;28;20455;-67
2023/01/26 01:23:41;;;;;;;27.38;11.80;;;2.20;99.90;;;;;;5051552;28;20409;-67
2023/01/26 01:26:09;;;;;;;27.05;11.18;;;2.20;1.00;;;;;;5050348;28;20405;-67
2023/01/26 01:28:35;;;;;;;31.13;11.27;;;3.50;99.90;;;;;;5050266;28;20429;-67
2023/01/26 01:31:08;;;;;;;31.38;11.65;;;2.30;99.90;;;;;;5050831;28;20464;-66
2023/01/26 01:33:34;;;;;;;25.63;10.47;;;2.50;99.90;;;;;;5051676;28;20409;-67
2023/01/26 01:36:03;;;;;;;26.90;11.90;;;2.30;99.90;;;;;;5050319;28;20397;-65
2023/01/26 01:38:28;;;;;;;30.65;11.27;;;2.30;99.90;;;;;;5051309;28;20450;-67
2023/01/26 01:40:55;;;;;;;28.37;11.50;;;2.30;1.00;;;;;;5051386;28;21085;-67
2023/01/26 01:43:22;;;;;;;24.85;10.40;;;2.50;1.00;;;;;;5050440;28;20382;-67
2023/01/26 01:45:48;;;;;;;30.95;11.00;;;3.30;99.90;;;;;;5051196;28;20381;-67
2023/01/26 01:48:27;;;;;;;32.92;11.60;;;2.10;1.00;;;;;;5049072;28;20386;-67
2023/01/26 01:51:01;;;;;;;27.90;10.30;;;2.20;1.00;;;;;;5051010;28;20862;-67
2023/01/26 01:53:34;;;;;;;26.88;10.38;;;2.20;7.70;;;;;;5050690;28;20448;-67
2023/01/26 01:56:04;;;;;;;27.45;9.95;;;3.10;48.40;;;;;;5050802;28;20398;-66
2023/01/26 01:58:34;;;;;;;28.83;10.30;;;2.20;1.00;;;;;;5051063;28;20393;-67
2023/01/26 02:00:59;;;;;;;27.27;10.88;;;2.20;9.60;;;;;;5050804;28;20381;-66
2023/01/26 02:03:27;;;;;;;27.20;9.50;;;2.30;1.00;;;;;;5050488;28;20717;-67
2023/01/26 02:06:04;;;;;;;26.63;10.43;;;2.10;1.00;;;;;;5050600;28;20382;-67
2023/01/26 02:08:33;;;;;;;35.20;13.45;;;2.20;61.90;;;;;;5050777;28;20374;-67
2023/01/26 02:11:03;;;;;;;38.97;13.85;;;2.40;1.00;;;;;;5050358;28;20390;-65
2023/01/26 02:13:30;;;;;;;24.55;9.50;;;2.20;61.20;;;;;;5050307;28;20416;-67
2023/01/26 02:15:58;;;;;;;26.13;10.57;;;2.00;99.90;;;;;;5050354;28;20420;-67
2023/01/26 02:18:24;;;;;;;25.58;10.20;;;2.00;99.90;;;;;;5048726;28;20373;-67
2023/01/26 02:20:53;;;;;;;24.75;10.45;;;2.10;1.00;;;;;;5050204;28;20452;-67
2023/01/26 02:23:38;;;;;;;33.47;12.10;;;3.00;1.00;;;;;;5049651;28;20394;-66
2023/01/26 02:26:04;;;;;;;23.98;9.32;;;2.10;1.00;;;;;;5049444;28;20420;-66
2023/01/26 02:28:31;;;;;;;23.90;8.60;;;2.20;1.00;;;;;;5050497;28;20386;-66
2023/01/26 02:30:58;;;;;;;21.67;9.15;;;2.20;1.00;;;;;;5050215;28;20389;-66
2023/01/26 02:33:29;;;;;;;24.27;9.57;;;2.20;99.90;;;;;;5049110;28;20406;-66
2023/01/26 02:35:55;;;;;;;23.37;8.60;;;2.20;99.90;;;;;;5050434;28;20374;-67
2023/01/26 02:38:24;;;;;;;24.13;8.97;;;2.20;1.00;;;;;;5049279;28;20907;-66
2023/01/26 02:40:54;;;;;;;24.48;8.27;;;2.30;1.00;;;;;;5049561;28;20393;-66
2023/01/26 02:43:22;;;;;;;26.98;9.90;;;2.30;99.90;;;;;;5049460;28;20389;-66
2023/01/26 02:45:47;;;;;;;24.55;8.93;;;2.30;1.00;;;;;;5050217;28;20381;-67
2023/01/26 02:48:13;;;;;;;26.43;10.20;;;2.40;99.90;;;;;;5049034;28;20461;-66
2023/01/26 02:50:38;;;;;;;24.55;10.15;;;2.50;1.00;;;;;;5048787;28;20393;-66
2023/01/26 02:53:04;;;;;;;22.43;9.33;;;2.40;99.90;;;;;;5048987;28;20951;-65
2023/01/26 02:55:30;;;;;;;26.60;9.98;;;2.50;99.90;;;;;;5049367;28;20401;-66
2023/01/26 02:57:56;;;;;;;26.15;10.20;;;2.40;99.90;;;;;;5049457;28;20424;-66
2023/01/26 03:00:25;;;;;;;26.90;10.15;;;2.30;1.00;;;;;;5049203;28;20381;-66
2023/01/26 03:02:53;;;;;;;23.38;9.00;;;2.40;6.30;;;;;;5049321;28;20827;-66
2023/01/26 03:05:19;;;;;;;28.30;9.73;;;2.30;99.90;;;;;;5048396;28;20381;-66
2023/01/26 03:07:44;;;;;;;26.35;9.57;;;2.10;99.90;;;;;;5049811;28;20712;-66
2023/01/26 03:10:11;;;;;;;22.37;9.57;;;2.10;99.90;;;;;;5046711;28;20534;-66
2023/01/26 03:12:36;;;;;;;29.13;9.65;;;2.10;1.00;;;;;;5047214;28;20382;-66
2023/01/26 03:17:47;;;;;;;23.58;9.20;;;2.10;1.00;;;;;;5029989;28;20387;-66
2023/01/26 03:28:25;;;;;;;20.23;8.83;;;2.20;1.00;;;;;;5048601;28;20392;-66
2023/01/26 03:30:54;;;;;;;26.10;9.63;;;2.20;1.00;;;;;;5049906;28;20378;-66
2023/01/26 03:33:20;;;;;;;25.77;9.90;;;2.10;1.00;;;;;;5048731;28;20407;-68
2023/01/26 03:35:46;;;;;;;29.98;11.00;;;2.20;1.00;;;;;;5049303;28;20387;-67
2023/01/26 03:38:12;;;;;;;29.83;9.82;;;2.10;1.00;;;;;;5048648;28;20385;-66
2023/01/26 03:57:04;;;;;;;25.40;9.30;;;1.70;99.90;;;;;;5037075;28;20410;-65
2023/01/26 03:59:38;;;;;;;24.92;8.95;;;2.00;99.90;;;;;;5033180;28;20387;-66
2023/01/26 04:10:20;;;;;;;22.55;8.77;;;1.70;99.90;;;;;;5032163;28;20374;-66
2023/01/26 04:23:46;;;;;;;22.43;9.23;;;1.80;99.90;;;;;;5032559;28;20402;-66
2023/01/26 04:26:12;;;;;;;22.43;9.23;;;1.90;99.90;;;;;;5031783;28;20411;-66
2023/01/26 04:28:37;;;;;;;22.17;8.38;;;1.80;99.90;;;;;;5032317;28;20798;-66
2023/01/26 04:31:03;;;;;;;22.23;8.60;;;1.70;99.90;;;;;;5031860;28;20417;-64
2023/01/26 04:33:29;;;;;;;24.00;9.23;;;1.60;99.90;;;;;;5032501;28;20452;-66
2023/01/26 04:35:55;;;;;;;24.88;9.73;;;1.50;99.90;;;;;;5032395;28;20434;-66
2023/01/26 04:38:21;;;;;;;24.42;9.20;;;1.60;99.90;;;;;;5031725;28;20450;-66
2023/01/26 04:40:53;;;;;;;24.17;8.10;;;1.60;99.90;;;;;;5032346;28;20911;-67
2023/01/26 04:43:18;;;;;;;23.20;8.60;;;1.50;99.90;;;;;;5031632;28;20959;-67
2023/01/26 04:45:44;;;;;;;23.73;8.83;;;1.40;99.90;;;;;;5032787;28;20458;-67
2023/01/26 04:48:09;;;;;;;26.95;9.98;;;1.50;99.90;;;;;;5031561;28;20387;-67
2023/01/26 04:50:35;;;;;;;26.20;10.90;;;1.50;1.00;;;;;;5031954;28;20391;-67
2023/01/26 04:53:01;;;;;;;42.22;18.83;;;1.60;1.00;;;;;;5032093;28;20868;-65
2023/01/26 04:55:26;;;;;;;26.90;12.45;;;1.70;99.90;;;;;;5031251;28;20421;-67
2023/01/26 04:57:52;;;;;;;24.47;9.67;;;1.60;99.90;;;;;;5032143;28;20837;-67
2023/01/26 05:00:18;;;;;;;25.05;9.80;;;1.40;99.90;;;;;;5033168;28;20394;-67
2023/01/26 05:02:43;;;;;;;19.17;8.43;;;1.50;1.00;;;;;;5051453;28;20381;-66
2023/01/26 05:05:09;;;;;;;27.80;7.97;;;1.50;99.90;;;;;;5051293;28;20429;-66
2023/01/26 05:07:35;;;;;;;22.48;8.60;;;1.50;99.90;;;;;;5051831;28;20373;-67
2023/01/26 05:10:00;;;;;;;24.35;9.20;;;1.60;99.90;;;;;;5051654;28;20386;-65
2023/01/26 05:12:32;;;;;;;23.30;8.90;;;1.40;99.90;;;;;;5051097;28;20377;-68
2023/01/26 05:14:57;;;;;;;24.73;8.98;;;1.50;99.90;;;;;;5051914;28;20397;-65
2023/01/26 05:17:23;;;;;;;24.45;9.75;;;1.50;99.90;;;;;;5050896;28;21058;-66
2023/01/26 05:19:48;;;;;;;21.17;8.90;;;1.40;99.90;;;;;;5051560;28;20386;-65
2023/01/26 05:22:14;;;;;;;28.13;8.75;;;1.30;99.90;;;;;;5051044;28;20481;-65
2023/01/26 05:24:39;;;;;;;29.13;9.30;;;1.30;1.00;;;;;;5051106;28;20770;-67
2023/01/26 05:27:20;;;;;;;26.87;9.77;;;1.30;1.00;;;;;;5051276;28;20400;-67
2023/01/26 05:29:46;;;;;;;25.60;9.50;;;1.30;1.00;;;;;;5051570;28;20400;-67
2023/01/26 05:32:12;;;;;;;29.65;9.40;;;1.30;1.00;;;;;;5044453;28;20497;-67
2023/01/26 05:34:38;;;;;;;20.90;8.35;;;1.20;1.00;;;;;;5041964;28;20415;-65
2023/01/26 05:37:04;;;;;;;25.35;9.52;;;1.00;1.00;;;;;;5040004;28;20741;-64
2023/01/26 05:39:29;;;;;;;23.20;8.88;;;1.10;1.00;;;;;;5043381;28;20521;-65
2023/01/26 05:41:55;;;;;;;24.17;9.90;;;1.10;1.00;;;;;;5046697;28;20732;-66
2023/01/26 05:44:23;;;;;;;23.23;9.15;;;0.90;1.00;;;;;;5044090;28;20393;-65
2023/01/26 05:46:49;;;;;;;22.77;9.73;;;1.10;1.00;;;;;;5067057;28;20399;-65
2023/01/26 05:49:15;;;;;;;24.45;8.77;;;1.20;1.00;;;;;;5070305;28;20444;-64
2023/01/26 05:51:40;;;;;;;27.65;10.32;;;1.10;1.00;;;;;;5071243;28;20384;-64
2023/01/26 05:54:06;;;;;;;23.23;8.97;;;1.10;1.00;;;;;;5054469;28;20407;-63
2023/01/26 05:56:31;;;;;;;27.33;11.30;;;1.00;1.00;;;;;;5039621;28;20777;-64
2023/01/26 05:58:57;;;;;;;26.50;10.00;;;1.10;1.00;;;;;;5038373;28;20385;-65
2023/01/26 06:01:22;;;;;;;25.43;9.97;;;1.20;1.00;;;;;;5050593;28;20435;-65
2023/01/26 06:03:48;;;;;;;17.80;8.13;;;1.20;1.00;;;;;;5050927;28;20900;-65
2023/01/26 06:06:13;;;;;;;28.38;10.27;;;1.20;99.90;;;;;;5049850;28;20466;-65
2023/01/26 06:08:39;;;;;;;26.13;9.93;;;1.10;1.00;;;;;;5059916;28;20384;-64
2023/01/26 06:11:05;;;;;;;25.42;8.88;;;1.00;1.00;;;;;;5070187;28;20880;-64
2023/01/26 06:13:30;;;;;;;29.90;10.00;;;1.00;1.00;;;;;;5053410;28;20419;-65
2023/01/26 06:16:00;;;;;;;27.50;10.37;;;1.20;99.90;;;;;;5045146;28;20752;-66
2023/01/26 06:18:25;;;;;;;26.25;11.68;;;1.00;1.00;;;;;;5038082;28;20391;-65
2023/01/26 06:20:51;;;;;;;30.80;11.10;;;1.10;99.90;;;;;;5030255;28;20730;-68
2023/01/26 06:23:17;;;;;;;25.83;11.93;;;1.20;99.90;;;;;;5037111;28;20459;-67
2023/01/26 06:25:42;;;;;;;23.38;10.38;;;1.20;99.90;;;;;;5049857;28;20890;-66
2023/01/26 06:28:08;;;;;;;21.43;8.50;;;1.20;99.90;;;;;;5049638;28;20393;-65
2023/01/26 06:30:33;;;;;;;23.02;8.98;;;1.30;99.90;;;;;;5048530;28;20398;-65
2023/01/26 06:32:59;;;;;;;24.90;9.90;;;1.20;99.90;;;;;;5050141;28;20409;-66
2023/01/26 06:35:25;;;;;;;21.40;8.70;;;1.00;99.90;;;;;;5049596;28;20964;-66
2023/01/26 06:37:51;;;;;;;24.03;10.10;;;1.10;99.90;;;;;;5050138;28;20385;-66
2023/01/26 06:40:18;;;;;;;22.75;8.90;;;1.20;99.90;;;;;;5049197;28;20380;-65
2023/01/26 06:42:50;;;;;;;26.08;10.15;;;1.30;99.90;;;;;;5049945;28;20854;-67
2023/01/26 06:45:16;;;;;;;26.10;9.07;;;1.30;99.90;;;;;;5049159;28;20377;-67
2023/01/26 06:47:46;;;;;;;29.58;10.00;;;2.50;99.90;;;;;;5049114;28;20427;-67
2023/01/26 06:50:21;;;;;;;24.80;9.50;;;1.40;99.90;;;;;;5048413;28;20386;-66
2023/01/26 06:52:50;;;;;;;22.23;9.48;;;1.50;99.90;;;;;;5030216;28;20415;-66
2023/01/26 06:55:22;;;;;;;35.70;12.93;;;1.30;99.90;;;;;;5041752;28;20424;-66
2023/01/26 06:57:48;;;;;;;30.98;12.50;;;1.50;83.90;;;;;;5049837;28;20406;-66
2023/01/26 07:00:14;;;;;;;28.67;10.98;;;1.50;1.00;;;;;;5049091;28;20421;-67
2023/01/26 07:02:39;;;;;;;27.03;10.90;;;1.50;18.90;;;;;;5049700;28;20859;-64
2023/01/26 07:05:05;;;;;;;25.50;9.63;;;1.40;57.90;;;;;;5044136;28;20444;-65
2023/01/26 07:07:31;;;;;;;26.42;10.38;;;1.40;41.80;;;;;;5045980;28;20396;-66
2023/01/26 07:09:57;;;;;;;31.00;12.35;;;1.50;99.90;;;;;;5046866;28;20386;-66
2023/01/26 07:12:22;;;;;;;35.42;12.07;;;1.50;26.90;;;;;;5040280;28;21227;-66
2023/01/26 07:14:50;;;;;;;28.10;11.10;;;1.60;99.90;;;;;;5043747;28;20421;-66
2023/01/26 07:17:18;;;;;;;33.53;11.10;;;1.60;1.40;;;;;;5048259;28;20399;-66
2023/01/26 07:19:44;;;;;;;29.50;11.20;;;1.70;1.00;;;;;;5069192;28;20853;-66
2023/01/26 07:22:10;;;;;;;25.58;10.15;;;2.70;1.00;;;;;;5064225;28;20424;-66
2023/01/26 07:24:35;;;;;;;24.63;10.93;;;1.50;99.90;;;;;;5047914;28;20438;-64
2023/01/26 07:27:01;;;;;;;26.70;11.03;;;1.70;1.00;;;;;;5073244;28;20845;-65
2023/01/26 07:29:26;;;;;;;24.15;10.57;;;1.50;1.00;;;;;;5073040;28;20371;-64
2023/01/26 07:31:52;;;;;;;22.87;10.40;;;1.60;12.10;;;;;;5073429;28;20391;-65
2023/01/26 07:34:18;;;;;;;24.13;9.30;;;1.50;1.00;;;;;;5072862;28;20413;-64
2023/01/26 07:36:44;;;;;;;25.20;9.35;;;1.50;1.00;;;;;;5073377;28;20379;-64
2023/01/26 07:39:10;;;;;;;24.73;9.60;;;1.50;1.00;;;;;;5068745;28;20385;-66
2023/01/26 07:41:35;;;;;;;20.00;9.35;;;1.50;1.00;;;;;;5053519;28;20389;-66
2023/01/26 07:44:01;;;;;;;23.60;9.90;;;1.50;1.00;;;;;;5068702;28;20435;-65
2023/01/26 07:46:26;;;;;;;23.43;9.70;;;1.70;1.00;;;;;;5046616;28;21006;-66
2023/01/26 07:48:52;;;;;;;25.25;9.48;;;1.80;99.90;;;;;;5070198;28;20445;-67
2023/01/26 07:51:18;;;;;;;28.20;9.52;;;1.70;99.90;;;;;;5057897;28;20470;-68
2023/01/26 07:53:48;;;;;;;24.83;9.53;;;1.70;99.90;;;;;;5041706;28;20796;-66
2023/01/26 07:56:19;;;;;;;21.60;9.45;;;1.80;1.00;;;;;;5050131;28;20540;-65
2023/01/26 07:58:48;;;;;;;22.80;9.40;;;1.90;1.00;;;;;;5053579;28;20788;-66
2023/01/26 08:01:14;;;;;;;25.83;10.10;;;2.40;1.00;;;;;;5050004;28;20393;-65
2023/01/26 08:03:40;;;;;;;30.95;9.98;;;2.00;66.80;;;;;;5054925;28;20866;-65
2023/01/26 08:06:07;;;;;;;22.50;9.77;;;2.00;1.00;;;;;;5059750;28;20390;-65
2023/01/26 08:08:33;;;;;;;21.77;9.20;;;2.00;1.00;;;;;;5057422;28;20376;-65
2023/01/26 08:11:00;;;;;;;24.02;9.45;;;1.70;56.40;;;;;;5054631;28;20456;-66
2023/01/26 08:13:27;;;;;;;21.17;9.00;;;1.80;99.90;;;;;;5051307;28;21099;-66
2023/01/26 08:15:53;;;;;;;21.53;9.07;;;2.30;99.90;;;;;;5053813;28;20393;-64
2023/01/26 08:18:20;;;;;;;21.67;9.47;;;1.60;94.90;;;;;;5056327;28;20772;-66
2023/01/26 08:20:53;;;;;;;28.20;9.55;;;1.80;99.90;;;;;;5053176;28;20390;-66
2023/01/26 08:23:19;;;;;;;22.67;8.25;;;1.90;1.00;;;;;;5051606;28;20378;-65
2023/01/26 08:25:45;;;;;;;23.00;9.05;;;1.90;99.90;;;;;;5052923;28;20436;-64
2023/01/26 08:28:11;;;;;;;23.50;9.18;;;2.10;75.20;;;;;;5054917;28;20888;-66
2023/01/26 08:30:36;;;;;;;24.55;10.15;;;1.90;99.90;;;;;;5057048;28;20391;-67
2023/01/26 08:33:03;;;;;;;24.73;9.70;;;2.80;99.90;;;;;;5054065;28;20405;-66
2023/01/26 08:35:31;;;;;;;26.40;9.50;;;1.90;1.00;;;;;;5054543;28;20385;-67
2023/01/26 08:37:57;;;;;;;27.02;10.48;;;1.80;19.40;;;;;;5053673;28;20388;-69
2023/01/26 08:40:23;;;;;;;25.85;11.00;;;1.80;71.50;;;;;;5050804;28;20397;-68
2023/01/26 08:42:49;;;;;;;25.08;11.35;;;1.80;1.00;;;;;;5054207;28;20382;-67
2023/01/26 08:45:15;;;;;;;26.92;11.23;;;1.70;1.00;;;;;;5052837;28;20399;-68
2023/01/26 08:47:41;;;;;;;21.97;9.70;;;1.90;1.00;;;;;;5053929;28;20386;-68
2023/01/26 08:50:07;;;;;;;25.27;10.00;;;1.90;99.90;;;;;;5056004;28;20381;-65
2023/01/26 08:52:33;;;;;;;25.43;10.43;;;2.10;1.00;;;;;;5050953;28;20402;-69
2023/01/26 08:54:59;;;;;;;20.53;8.93;;;1.90;1.00;;;;;;5053090;28;20410;-67
2023/01/26 08:57:25;;;;;;;18.55;8.25;;;2.00;99.90;;;;;;5053467;28;20685;-66
2023/01/26 08:59:51;;;;;;;21.50;8.25;;;2.00;99.90;;;;;;5056263;28;20390;-66
2023/01/26 09:02:18;;;;;;;17.57;7.23;;;1.90;25.40;;;;;;5054962;28;20390;-67
2023/01/26 09:04:44;;;;;;;22.43;8.80;;;1.70;99.90;;;;;;5053929;28;20446;-66
2023/01/26 09:07:09;;;;;;;20.27;8.50;;;1.70;99.90;;;;;;5053300;28;20405;-65
2023/01/26 09:09:35;;;;;;;21.08;7.55;;;1.80;99.90;;;;;;5053195;28;20417;-67
2023/01/26 09:12:01;;;;;;;18.40;6.43;;;1.80;1.00;;;;;;5053206;28;20381;-66
2023/01/26 09:14:27;;;;;;;20.80;7.80;;;1.80;99.90;;;;;;5054443;28;20572;-67
2023/01/26 09:16:53;;;;;;;19.52;7.85;;;1.70;99.90;;;;;;5050996;28;20439;-66
2023/01/26 09:19:18;;;;;;;21.70;9.20;;;1.80;99.90;;;;;;5052881;28;20382;-66
2023/01/26 09:21:44;;;;;;;26.93;10.10;;;1.80;1.00;;;;;;5055371;28;20389;-66
2023/01/26 09:24:10;;;;;;;19.48;7.85;;;1.90;1.00;;;;;;5055032;28;20384;-67
2023/01/26 09:26:35;;;;;;;17.30;6.90;;;1.90;1.00;;;;;;5053001;28;20891;-64
2023/01/26 09:29:01;;;;;;;19.40;8.38;;;2.00;99.90;;;;;;5054777;28;20867;-67
2023/01/26 09:31:26;;;;;;;16.70;5.73;;;1.90;99.90;;;;;;5052724;28;20452;-65
2023/01/26 09:33:52;;;;;;;16.63;6.63;;;1.80;99.90;;;;;;5053543;28;20401;-67
2023/01/26 09:36:18;;;;;;;15.15;7.05;;;1.70;99.90;;;;;;5054749;28;20447;-67
2023/01/26 09:38:43;;;;;;;13.93;5.50;;;1.80;99.90;;;;;;5052834;28;20381;-68
2023/01/26 09:41:09;;;;;;;15.75;5.90;;;1.80;99.90;;;;;;5052552;28;20423;-64
2023/01/26 09:43:44;;;;;;;13.38;5.18;;;1.80;99.90;;;;;;5050612;28;20890;-67
2023/01/26 09:46:21;;;;;;;15.00;5.53;;;1.90;99.30;;;;;;5055065;28;20380;-69
2023/01/26 09:49:02;;;;;;;12.75;5.13;;;1.90;9.30;;;;;;5051935;28;20386;-68
2023/01/26 09:51:33;;;;;;;17.00;5.90;;;1.80;1.00;;;;;;5049787;28;20381;-65
2023/01/26 09:54:21;;;;;;;18.67;7.15;;;1.80;1.00;;;;;;5049383;28;20917;-67
2023/01/26 09:56:47;;;;;;;19.75;7.20;;;1.80;99.90;;;;;;5053766;28;20418;-63
2023/01/26 09:59:37;;;;;;;16.25;5.95;;;1.80;99.90;;;;;;5050012;28;20374;-67
2023/01/26 10:02:15;;;;;;;15.90;5.57;;;1.70;94.00;;;;;;5048714;28;20886;-65
2023/01/26 10:04:45;;;;;;;19.07;6.53;;;1.90;99.90;;;;;;5042440;28;20470;-65
2023/01/26 10:07:14;;;;;;;13.88;5.80;;;1.60;1.00;;;;;;5048900;28;20394;-64
2023/01/26 10:09:44;;;;;;;18.65;6.70;;;1.70;99.90;;;;;;5044654;28;20424;-66
2023/01/26 10:12:33;;;;;;;17.02;6.90;;;1.70;99.90;;;;;;5044165;28;20394;-65
2023/01/26 10:15:17;;;;;;;17.17;6.60;;;1.70;1.00;;;;;;5041164;28;20413;-65
2023/01/26 10:17:45;;;;;;;13.87;5.70;;;1.80;34.20;;;;;;5040910;28;20395;-66
2023/01/26 10:20:32;;;;;;;16.00;6.07;;;1.60;1.00;;;;;;5040621;28;20498;-64
2023/01/26 10:23:06;;;;;;;15.52;6.32;;;1.70;99.90;;;;;;5043743;28;20455;-64
2023/01/26 10:25:37;;;;;;;14.50;5.85;;;1.60;99.90;;;;;;5036892;28;20847;-65
2023/01/26 10:28:39;;;;;;;12.15;5.40;;;1.60;99.90;;;;;;5048814;28;20963;-66
2023/01/26 10:31:11;;;;;;;12.63;5.03;;;1.50;3.70;;;;;;5046160;28;20393;-63
2023/01/26 10:33:39;;;;;;;13.95;4.93;;;1.30;99.90;;;;;;5048527;28;20428;-67
2023/01/26 10:36:06;;;;;;;16.77;6.50;;;1.30;1.00;;;;;;5046498;28;20403;-64
2023/01/26 10:38:31;;;;;;;16.52;5.78;;;1.30;1.00;;;;;;5042317;28;20397;-64
2023/01/26 10:41:15;;;;;;;13.77;5.10;;;1.40;99.90;;;;;;5042405;28;20386;-65
2023/01/26 10:43:49;;;;;;;15.27;6.38;;;1.40;99.90;;;;;;5041830;28;20414;-64
2023/01/26 10:46:36;;;;;;;15.45;5.20;;;1.20;99.90;;;;;;5039625;28;20392;-65
2023/01/26 10:49:08;;;;;;;16.73;6.15;;;1.30;1.00;;;;;;5041542;28;21011;-63
2023/01/26 10:51:36;;;;;;;17.27;5.88;;;1.50;1.00;;;;;;5036105;28;20880;-63
2023/01/26 10:54:21;;;;;;;18.65;6.32;;;1.50;99.90;;;;;;5034869;28;20429;-63
2023/01/26 10:56:54;;;;;;;14.35;4.72;;;1.60;13.10;;;;;;5035907;28;20409;-63
2023/01/26 10:59:29;;;;;;;13.63;4.65;;;1.50;99.90;;;;;;5044562;28;20428;-64
2023/01/26 11:02:19;;;;;;;15.73;5.65;;;1.40;1.00;;;;;;5050950;28;20439;-64
2023/01/26 11:05:23;;;;;;;13.10;4.70;;;1.30;1.00;;;;;;5047680;28;20743;-67
2023/01/26 11:07:54;;;;;;;16.23;6.57;;;1.30;99.90;;;;;;5050985;28;20412;-67
2023/01/26 11:10:25;;;;;;;15.60;5.72;;;2.00;55.00;;;;;;5048776;28;20412;-66
2023/01/26 11:13:06;;;;;;;14.07;5.47;;;1.50;1.00;;;;;;5050139;28;20401;-65
2023/01/26 11:15:36;;;;;;;11.80;4.78;;;1.60;1.00;;;;;;5051428;28;20385;-65
2023/01/26 11:18:08;;;;;;;17.23;6.22;;;1.50;1.00;;;;;;5053382;28;20410;-66
2023/01/26 11:20:39;;;;;;;16.42;6.05;;;1.50;1.00;;;;;;5049607;28;20847;-66
2023/01/26 11:23:12;;;;;;;13.73;5.70;;;1.60;1.00;;;;;;5051591;28;20394;-66
2023/01/26 11:26:00;;;;;;;16.77;6.50;;;2.00;1.00;;;;;;5051837;28;20423;-66
2023/01/26 11:28:41;;;;;;;15.27;5.50;;;1.70;99.90;;;;;;5065264;28;20473;-66
2023/01/26 11:31:19;;;;;;;13.27;5.00;;;1.60;99.90;;;;;;5045323;28;20401;-64
2023/01/26 11:34:03;;;;;;;15.55;5.40;;;1.50;99.90;;;;;;5047675;28;20471;-69
2023/01/26 11:36:38;;;;;;;14.07;4.93;;;1.50;99.90;;;;;;5051207;28;20399;-69
2023/01/26 11:39:15;;;;;;;14.85;4.70;;;1.50;1.00;;;;;;5045888;28;20421;-68
2023/01/26 11:42:00;;;;;;;16.13;4.90;;;1.50;99.90;;;;;;5049041;28;20850;-69
2023/01/26 11:45:19;;;;;;;14.00;5.53;;;1.40;99.90;;;;;;5048453;28;20389;-69
2023/01/26 11:48:15;;;;;;;17.95;5.72;;;1.50;99.90;;;;;;4986216;28;20518;-69
2023/01/26 11:50:54;;;;;;;16.90;5.90;;;1.60;99.90;;;;;;4985625;28;20417;-69
2023/01/26 11:53:38;;;;;;;13.83;5.70;;;1.70;99.90;;;;;;5032716;28;20413;-69
2023/01/26 11:56:09;;;;;;;18.55;6.80;;;1.80;22.60;;;;;;5051107;28;20493;-69
2023/01/26 11:58:48;;;;;;;16.95;6.35;;;1.70;99.90;;;;;;5047381;28;20842;-70
2023/01/26 12:01:20;;;;;;;20.98;6.05;;;1.50;99.90;;;;;;5063275;28;20868;-69
2023/01/26 12:03:50;;;;;;;17.70;5.78;;;1.70;1.00;;;;;;5057934;28;20870;-70
2023/01/26 12:06:39;;;;;;;18.15;6.45;;;1.60;99.90;;;;;;5047773;28;20807;-69
2023/01/26 12:09:20;;;;;;;14.38;5.47;;;1.50;1.00;;;;;;5058276;28;20376;-69
2023/01/26 12:12:04;;;;;;;16.17;6.10;;;1.60;1.00;;;;;;5054270;28;20781;-69
2023/01/26 12:14:55;;;;;;;14.80;5.93;;;1.70;99.90;;;;;;5050286;28;20487;-69
2023/01/26 12:17:58;;;;;;;16.33;6.00;;;1.40;1.00;;;;;;5032748;28;20485;-69
2023/01/26 12:20:41;;;;;;;16.17;6.40;;;1.40;99.90;;;;;;5032239;28;20951;-71
2023/01/26 12:23:07;;;;;;;15.33;5.80;;;1.50;99.90;;;;;;5032714;28;20864;-68
2023/01/26 12:25:35;;;;;;;23.13;8.40;;;1.50;99.90;;;;;;5032031;28;20489;-68
2023/01/26 12:28:38;;;;;;;16.50;6.73;;;1.50;99.90;;;;;;5032508;28;20402;-68
2023/01/26 12:31:32;;;;;;;19.77;8.15;;;1.60;99.90;;;;;;5033088;28;20411;-68
2023/01/26 12:33:58;;;;;;;16.38;7.57;;;1.50;99.90;;;;;;5053892;28;20411;-68
2023/01/26 12:36:42;;;;;;;20.03;8.93;;;2.50;99.90;;;;;;5069303;28;20431;-68
2023/01/26 12:39:26;;;;;;;20.65;8.38;;;1.50;99.90;;;;;;5063473;28;20423;-66
2023/01/26 12:42:07;;;;;;;21.52;8.57;;;1.50;99.90;;;;;;5044965;28;20403;-68
2023/01/26 12:44:39;;;;;;;15.32;7.28;;;1.40;99.90;;;;;;5050822;28;20401;-69
2023/01/26 12:47:31;;;;;;;19.17;7.60;;;2.10;99.90;;;;;;5046077;28;20405;-68
2023/01/26 12:50:13;;;;;;;22.07;9.03;;;1.20;99.90;;;;;;5045932;28;20422;-69
2023/01/26 12:52:45;;;;;;;27.90;10.07;;;1.20;1.00;;;;;;5037949;28;20378;-69
2023/01/26 12:55:36;;;;;;;25.13;10.45;;;1.20;1.00;;;;;;5037478;28;20994;-67
2023/01/26 12:58:05;;;;;;;20.83;9.05;;;1.50;5.80;;;;;;5052883;28;20407;-69
2023/01/26 13:00:34;;;;;;;33.42;11.48;;;1.50;99.90;;;;;;5053095;28;20390;-69
2023/01/26 13:03:24;;;;;;;26.83;9.17;;;1.50;99.90;;;;;;5051745;28;20486;-68
2023/01/26 13:06:01;;;;;;;27.02;9.48;;;1.70;99.90;;;;;;5045161;28;20410;-70
2023/01/26 13:08:30;;;;;;;20.55;6.88;;;1.70;99.90;;;;;;5042544;28;20886;-69
2023/01/26 13:10:57;;;;;;;23.43;9.40;;;1.70;1.00;;;;;;5044797;28;20959;-66
2023/01/26 13:13:47;;;;;;;19.88;7.03;;;1.70;1.00;;;;;;5049166;28;20425;-67
2023/01/26 13:16:15;;;;;;;18.47;7.03;;;1.60;1.00;;;;;;5043444;28;20410;-65
2023/01/26 13:19:27;;;;;;;21.50;8.05;;;1.40;1.00;;;;;;5053487;28;20397;-67
2023/01/26 13:21:53;;;;;;;22.20;8.00;;;1.30;99.90;;;;;;5055557;28;20405;-66
2023/01/26 13:24:24;;;;;;;19.67;6.80;;;1.40;50.50;;;;;;5048783;28;20398;-67
2023/01/26 13:26:52;;;;;;;21.38;7.82;;;1.50;24.30;;;;;;5043633;28;20427;-65
2023/01/26 13:29:26;;;;;;;23.23;6.38;;;1.60;99.90;;;;;;5042376;28;20483;-67
2023/01/26 13:31:54;;;;;;;19.83;7.70;;;1.40;26.20;;;;;;5049719;28;20447;-67
2023/01/26 13:34:26;;;;;;;22.63;7.75;;;1.40;99.90;;;;;;5043163;28;20520;-68
2023/01/26 13:36:58;;;;;;;20.37;8.80;;;1.50;99.90;;;;;;5040401;28;20411;-67
2023/01/26 13:39:30;;;;;;;22.10;8.23;;;1.60;99.90;;;;;;5051236;28;20385;-66
2023/01/26 13:41:56;;;;;;;19.73;7.13;;;1.70;55.10;;;;;;5043497;28;20896;-67
2023/01/26 13:44:44;;;;;;;17.90;7.45;;;1.90;1.00;;;;;;5033957;28;20413;-66
2023/01/26 13:47:17;;;;;;;22.80;8.90;;;1.80;1.00;;;;;;5050153;28;20444;-65
2023/01/26 13:49:43;;;;;;;21.10;9.40;;;1.90;1.00;;;;;;5044682;28;20405;-67